Time;durP1;ratioP1;P1;durP2;ratioP2;P2;SDS_P1;SDS_P2;PMS_P1;PMS_P2;Temp;Humidity;BMP_temperature;BMP_pressure;BME280_temperature;BME280_humidity;BME280_pressure;Samples;Min_cycle;Max_cycle;Signal;HPM_P1;HPM_P2
2021/06/26 00:00:08;;;;;;;23.13;15.50;;;17.30;1.00;;;;;;5039393;28;20819;-73
2021/06/26 00:02:36;;;;;;;18.13;13.73;;;17.30;1.00;;;;;;5031179;28;20506;-72
2021/06/26 00:05:02;;;;;;;17.80;14.20;;;17.20;1.00;;;;;;4995140;28;1043305;-72
2021/06/26 00:07:28;;;;;;;19.83;15.27;;;17.20;1.00;;;;;;5026456;28;20198;-73
2021/06/26 00:09:54;;;;;;;19.37;16.80;;;17.20;1.00;;;;;;5026891;28;20456;-73
2021/06/26 00:12:19;;;;;;;19.10;15.03;;;17.00;1.00;;;;;;5026060;28;20195;-73
2021/06/26 00:14:45;;;;;;;17.37;15.00;;;17.00;1.00;;;;;;5027980;28;20814;-73
2021/06/26 00:17:12;;;;;;;17.37;14.77;;;17.00;1.00;;;;;;5027845;28;20568;-72
2021/06/26 00:19:37;;;;;;;19.30;15.43;;;17.00;1.00;;;;;;5033485;28;20323;-72
2021/06/26 00:22:03;;;;;;;19.43;15.30;;;16.90;1.00;;;;;;5035621;28;20962;-72
2021/06/26 00:24:29;;;;;;;20.93;15.67;;;16.90;1.00;;;;;;5031278;28;20187;-73
2021/06/26 00:26:55;;;;;;;18.20;14.87;;;16.90;1.00;;;;;;5032507;28;20471;-73
2021/06/26 00:29:21;;;;;;;19.73;15.57;;;16.90;1.00;;;;;;5034093;28;20193;-72
2021/06/26 00:31:47;;;;;;;18.77;15.13;;;16.80;1.00;;;;;;5029427;28;20453;-72
2021/06/26 00:34:12;;;;;;;17.80;14.50;;;16.90;1.00;;;;;;5041128;28;20186;-73
2021/06/26 00:36:38;;;;;;;17.60;14.40;;;16.80;1.00;;;;;;5032893;28;20223;-72
2021/06/26 00:39:04;;;;;;;19.07;15.87;;;16.80;1.00;;;;;;5038251;28;20213;-72
2021/06/26 00:41:30;;;;;;;21.57;16.07;;;16.80;1.00;;;;;;5034735;28;20218;-72
2021/06/26 00:43:55;;;;;;;20.27;16.20;;;16.70;1.00;;;;;;5033365;28;20313;-72
2021/06/26 00:46:21;;;;;;;21.17;14.97;;;16.70;1.00;;;;;;5032486;28;20437;-72
2021/06/26 00:48:47;;;;;;;19.73;15.23;;;16.70;1.00;;;;;;5040029;28;20194;-73
2021/06/26 00:51:12;;;;;;;19.40;15.33;;;16.70;1.00;;;;;;5029741;28;20240;-72
2021/06/26 00:53:38;;;;;;;20.37;15.53;;;16.70;1.00;;;;;;5035626;28;20198;-73
2021/06/26 00:56:05;;;;;;;20.77;14.97;;;16.60;1.00;;;;;;5041346;28;21719;-72
2021/06/26 00:58:31;;;;;;;17.60;15.63;;;16.70;1.00;;;;;;5029098;28;20907;-73
2021/06/26 01:00:57;;;;;;;24.77;16.47;;;16.60;1.00;;;;;;5033204;28;20461;-72
2021/06/26 01:03:22;;;;;;;19.63;16.00;;;16.70;1.00;;;;;;5032366;28;20477;-72
2021/06/26 01:05:49;;;;;;;23.40;15.57;;;16.60;1.00;;;;;;5034716;28;20206;-73
2021/06/26 01:08:14;;;;;;;18.50;16.50;;;16.60;1.00;;;;;;5034013;28;20192;-72
2021/06/26 01:10:40;;;;;;;17.77;15.33;;;16.60;1.00;;;;;;5032186;28;20499;-72
2021/06/26 01:13:06;;;;;;;16.70;14.57;;;16.50;1.00;;;;;;5035841;28;20174;-73
2021/06/26 01:15:32;;;;;;;18.50;15.83;;;16.50;1.00;;;;;;5040207;28;20174;-73
2021/06/26 01:17:58;;;;;;;19.13;16.03;;;16.50;1.00;;;;;;5032795;28;20533;-72
2021/06/26 01:20:25;;;;;;;19.97;15.37;;;16.40;1.00;;;;;;5031930;28;20485;-72
2021/06/26 01:22:55;;;;;;;22.60;15.97;;;16.50;1.00;;;;;;5037198;28;20843;-73
2021/06/26 01:25:22;;;;;;;18.87;15.57;;;16.50;1.00;;;;;;5027343;28;21302;-73
2021/06/26 01:27:49;;;;;;;16.03;14.33;;;16.50;1.00;;;;;;5036230;28;20445;-73
2021/06/26 01:30:16;;;;;;;18.53;15.47;;;16.50;1.00;;;;;;5029522;28;20449;-73
2021/06/26 01:32:42;;;;;;;17.83;15.47;;;16.40;1.00;;;;;;5030200;28;20464;-72
2021/06/26 01:35:09;;;;;;;19.27;15.50;;;16.30;1.00;;;;;;5036179;28;20484;-72
2021/06/26 01:37:41;;;;;;;20.73;14.60;;;16.30;1.00;;;;;;5030399;28;20283;-74
2021/06/26 01:40:09;;;;;;;21.33;14.87;;;16.30;1.00;;;;;;5029836;28;20518;-73
2021/06/26 01:42:34;;;;;;;18.87;16.03;;;16.20;1.00;;;;;;5031314;28;20453;-73
2021/06/26 01:45:00;;;;;;;18.87;15.23;;;16.20;1.00;;;;;;5029787;28;21037;-73
2021/06/26 01:47:26;;;;;;;19.67;16.40;;;16.00;1.00;;;;;;5032991;28;20182;-73
2021/06/26 01:49:51;;;;;;;17.57;15.63;;;16.10;1.00;;;;;;5031522;28;20659;-73
2021/06/26 01:52:17;;;;;;;21.40;16.03;;;16.10;1.00;;;;;;5041447;28;20278;-72
2021/06/26 01:54:43;;;;;;;21.93;18.13;;;16.10;1.00;;;;;;5035299;28;20667;-72
2021/06/26 01:57:09;;;;;;;21.73;17.70;;;16.20;1.00;;;;;;5036622;28;20201;-73
2021/06/26 01:59:36;;;;;;;21.20;16.37;;;16.10;1.00;;;;;;5030868;28;20682;-73
2021/06/26 02:02:02;;;;;;;19.90;17.23;;;16.10;1.00;;;;;;5033105;28;20985;-72
2021/06/26 02:04:27;;;;;;;20.07;17.87;;;16.00;1.00;;;;;;5029725;28;20460;-73
2021/06/26 02:06:53;;;;;;;23.80;18.70;;;15.90;1.00;;;;;;5033028;28;20206;-73
2021/06/26 02:09:19;;;;;;;22.50;17.60;;;15.90;1.00;;;;;;5030521;28;20185;-73
2021/06/26 02:11:44;;;;;;;25.77;17.87;;;16.00;1.00;;;;;;5035655;28;20833;-72
2021/06/26 02:14:11;;;;;;;28.23;19.30;;;16.00;1.00;;;;;;5032623;28;20284;-72
2021/06/26 02:16:38;;;;;;;23.30;18.50;;;15.90;1.00;;;;;;5038453;28;20648;-73
2021/06/26 02:19:04;;;;;;;24.17;18.80;;;16.00;1.00;;;;;;5032749;28;21102;-73
2021/06/26 02:21:30;;;;;;;20.10;16.60;;;16.00;1.00;;;;;;5034249;28;20904;-72
2021/06/26 02:23:56;;;;;;;23.53;17.97;;;16.00;1.00;;;;;;5029747;28;20529;-73
2021/06/26 02:26:21;;;;;;;19.73;15.90;;;15.90;1.00;;;;;;5031797;28;20229;-72
2021/06/26 02:28:47;;;;;;;26.63;18.27;;;15.90;1.00;;;;;;5033318;28;20194;-72
2021/06/26 02:31:13;;;;;;;18.13;15.13;;;15.80;1.00;;;;;;5028929;28;20270;-73
2021/06/26 02:33:38;;;;;;;23.40;17.80;;;15.70;1.00;;;;;;5029744;28;20196;-72
2021/06/26 02:36:05;;;;;;;26.83;19.27;;;15.70;1.00;;;;;;5023630;28;20343;-72
2021/06/26 02:38:30;;;;;;;23.30;17.30;;;15.70;1.00;;;;;;5030595;28;20186;-72
2021/06/26 02:40:56;;;;;;;23.43;17.57;;;15.80;1.00;;;;;;5031789;28;20458;-72
2021/06/26 02:43:22;;;;;;;20.27;16.50;;;15.70;1.00;;;;;;5036531;28;20897;-72
2021/06/26 02:45:47;;;;;;;22.40;18.57;;;15.70;1.00;;;;;;5032398;28;20647;-73
2021/06/26 02:48:13;;;;;;;17.53;15.00;;;15.60;1.00;;;;;;5032801;28;20189;-73
2021/06/26 02:50:40;;;;;;;19.47;15.77;;;15.40;1.00;;;;;;5025724;28;20704;-72
2021/06/26 02:53:06;;;;;;;20.80;16.23;;;15.40;1.00;;;;;;5032828;28;20975;-73
2021/06/26 02:55:31;;;;;;;22.27;18.00;;;15.30;1.00;;;;;;5036434;28;20473;-73
2021/06/26 02:57:57;;;;;;;21.13;17.80;;;15.30;1.00;;;;;;5028660;28;20219;-73
2021/06/26 03:00:23;;;;;;;28.43;17.57;;;15.30;1.00;;;;;;5037246;28;20379;-73
2021/06/26 03:02:49;;;;;;;19.10;16.67;;;15.30;1.00;;;;;;5034705;28;20777;-72
2021/06/26 03:05:15;;;;;;;20.77;16.87;;;15.30;1.00;;;;;;5032922;28;20471;-72
2021/06/26 03:07:48;;;;;;;24.33;18.17;;;15.30;1.00;;;;;;5040664;28;20193;-72
2021/06/26 03:10:13;;;;;;;22.70;17.80;;;15.30;1.00;;;;;;5039014;28;20975;-72
2021/06/26 03:12:39;;;;;;;21.73;18.50;;;15.30;1.00;;;;;;5036087;28;20475;-72
2021/06/26 03:15:05;;;;;;;26.67;18.80;;;15.40;1.00;;;;;;5040210;28;20186;-73
2021/06/26 03:17:31;;;;;;;24.47;18.70;;;15.40;1.00;;;;;;5038597;28;20559;-72
2021/06/26 03:19:56;;;;;;;23.13;17.10;;;15.30;1.00;;;;;;5036241;28;20481;-73
2021/06/26 03:22:22;;;;;;;28.07;17.83;;;15.40;1.00;;;;;;5037763;28;20178;-73
2021/06/26 03:24:47;;;;;;;23.10;19.23;;;15.40;1.00;;;;;;5039923;28;20189;-73
2021/06/26 03:27:15;;;;;;;22.33;18.17;;;15.40;1.00;;;;;;5032633;28;20573;-73
2021/06/26 03:29:40;;;;;;;25.07;18.73;;;15.50;1.00;;;;;;5035115;28;20197;-73
2021/06/26 03:32:06;;;;;;;24.67;19.33;;;15.50;1.00;;;;;;5039870;28;20457;-73
2021/06/26 03:34:32;;;;;;;25.77;20.07;;;15.60;1.00;;;;;;5035063;28;20182;-73
2021/06/26 03:36:58;;;;;;;25.00;19.73;;;15.50;1.00;;;;;;5037662;28;20553;-73
2021/06/26 03:39:24;;;;;;;28.10;19.37;;;15.40;1.00;;;;;;5043122;28;20297;-73
2021/06/26 03:41:49;;;;;;;26.30;19.60;;;15.40;1.00;;;;;;5039641;28;20467;-73
2021/06/26 03:44:15;;;;;;;22.90;18.43;;;15.50;1.00;;;;;;5032036;28;20450;-73
2021/06/26 03:46:41;;;;;;;24.00;17.93;;;15.40;1.00;;;;;;5035532;28;20309;-73
2021/06/26 03:49:07;;;;;;;21.43;17.67;;;15.30;1.00;;;;;;5037031;28;20201;-73
2021/06/26 03:51:33;;;;;;;20.40;16.57;;;15.20;1.00;;;;;;5041129;28;20203;-73
2021/06/26 03:53:59;;;;;;;27.13;19.00;;;15.10;1.00;;;;;;5037784;28;20579;-73
2021/06/26 03:56:24;;;;;;;25.03;20.07;;;15.10;1.00;;;;;;5038573;28;21229;-72
2021/06/26 03:58:50;;;;;;;22.77;18.17;;;15.20;1.00;;;;;;5030611;28;20183;-73
2021/06/26 04:01:16;;;;;;;31.07;19.70;;;15.30;1.00;;;;;;5031199;28;20215;-72
2021/06/26 04:03:41;;;;;;;24.80;19.10;;;15.40;1.00;;;;;;5025258;28;20186;-72
2021/06/26 04:06:07;;;;;;;19.47;17.37;;;15.40;1.00;;;;;;5034426;28;20214;-72
2021/06/26 04:08:33;;;;;;;18.73;16.77;;;15.50;1.00;;;;;;5026762;28;20711;-72
2021/06/26 04:10:59;;;;;;;23.60;17.63;;;15.50;1.00;;;;;;5020243;28;20661;-73
2021/06/26 04:13:24;;;;;;;22.10;16.80;;;15.50;1.00;;;;;;5026536;28;20772;-72
2021/06/26 04:15:50;;;;;;;20.70;17.10;;;15.40;1.00;;;;;;5030168;28;20792;-72
2021/06/26 04:18:16;;;;;;;19.63;16.57;;;15.30;1.00;;;;;;5030471;28;20218;-73
2021/06/26 04:20:42;;;;;;;26.20;17.37;;;15.30;1.00;;;;;;5032407;28;20246;-72
2021/06/26 04:23:08;;;;;;;20.10;17.20;;;15.40;1.00;;;;;;5034873;28;20185;-72
2021/06/26 04:25:33;;;;;;;28.30;18.50;;;15.50;1.00;;;;;;5039044;28;20866;-74
2021/06/26 04:28:10;;;;;;;24.07;19.10;;;15.50;1.00;;;;;;5033830;28;20418;-72
2021/06/26 04:30:39;;;;;;;21.07;16.80;;;15.50;1.00;;;;;;5030098;28;20923;-72
2021/06/26 04:33:05;;;;;;;22.60;15.73;;;15.40;1.00;;;;;;5023053;28;20447;-73
2021/06/26 04:35:31;;;;;;;21.80;16.70;;;15.40;1.00;;;;;;5035005;28;20472;-72
2021/06/26 04:37:57;;;;;;;21.83;17.27;;;15.40;1.00;;;;;;5034221;28;20457;-73
2021/06/26 04:40:23;;;;;;;20.90;16.63;;;15.40;1.00;;;;;;5039222;28;20540;-72
2021/06/26 04:42:49;;;;;;;22.40;17.43;;;15.30;1.00;;;;;;5039899;28;20871;-72
2021/06/26 04:45:15;;;;;;;26.13;19.20;;;15.40;1.00;;;;;;5033127;28;20190;-72
2021/06/26 04:47:42;;;;;;;25.80;19.00;;;15.30;1.00;;;;;;5032185;28;20441;-72
2021/06/26 04:50:09;;;;;;;23.20;19.30;;;15.40;1.00;;;;;;5030328;28;20969;-72
2021/06/26 04:52:35;;;;;;;21.93;17.27;;;15.40;1.00;;;;;;5035693;28;20542;-72
2021/06/26 04:55:03;;;;;;;21.53;17.10;;;15.50;1.00;;;;;;5043615;28;21009;-72
2021/06/26 04:57:29;;;;;;;21.37;16.77;;;15.60;1.00;;;;;;5041339;28;20484;-72
2021/06/26 04:59:54;;;;;;;22.77;18.80;;;15.60;1.00;;;;;;5034989;28;21128;-73
2021/06/26 05:02:20;;;;;;;23.10;18.27;;;15.60;1.00;;;;;;5031096;28;20980;-72
2021/06/26 05:04:46;;;;;;;28.37;19.33;;;15.60;1.00;;;;;;5029204;28;20669;-72
2021/06/26 05:07:12;;;;;;;23.10;19.07;;;15.50;1.00;;;;;;5039427;28;20459;-73
2021/06/26 05:09:37;;;;;;;26.30;19.13;;;15.50;1.00;;;;;;5029785;28;20234;-72
2021/06/26 05:12:04;;;;;;;24.47;18.33;;;15.40;1.00;;;;;;5035443;28;20207;-72
2021/06/26 05:14:30;;;;;;;24.23;18.33;;;15.50;1.00;;;;;;5031871;28;20676;-72
2021/06/26 05:16:55;;;;;;;22.00;18.57;;;15.50;1.00;;;;;;5034384;28;20575;-72
2021/06/26 05:19:21;;;;;;;24.30;19.90;;;15.60;1.00;;;;;;5027822;28;20186;-72
2021/06/26 05:21:47;;;;;;;25.83;19.90;;;15.60;1.00;;;;;;5026063;28;20182;-72
2021/06/26 05:24:13;;;;;;;22.60;18.57;;;15.70;1.00;;;;;;5017026;28;20183;-72
2021/06/26 05:26:39;;;;;;;27.93;18.83;;;15.70;1.00;;;;;;5032114;28;20811;-72
2021/06/26 05:29:05;;;;;;;21.40;17.90;;;15.80;1.00;;;;;;5037138;28;20845;-72
2021/06/26 05:31:30;;;;;;;21.53;16.70;;;16.00;1.00;;;;;;5033340;28;20191;-72
2021/06/26 05:33:56;;;;;;;24.63;17.40;;;16.20;1.00;;;;;;5029781;28;20189;-72
2021/06/26 05:36:22;;;;;;;20.43;16.90;;;16.20;1.00;;;;;;5038185;28;20222;-72
2021/06/26 05:38:47;;;;;;;20.10;16.77;;;16.30;1.00;;;;;;5033929;28;20556;-72
2021/06/26 05:41:13;;;;;;;20.77;18.20;;;16.30;1.00;;;;;;5032191;28;20649;-72
2021/06/26 05:43:39;;;;;;;19.93;17.83;;;16.40;1.00;;;;;;5034013;28;20174;-72
2021/06/26 05:46:04;;;;;;;24.60;18.97;;;16.40;1.00;;;;;;5036013;28;20484;-71
2021/06/26 05:48:30;;;;;;;25.23;19.07;;;16.50;1.00;;;;;;5034806;28;20189;-72
2021/06/26 05:50:56;;;;;;;28.20;19.73;;;16.40;1.00;;;;;;5030936;28;20181;-72
2021/06/26 05:53:22;;;;;;;25.63;19.67;;;16.50;1.00;;;;;;5038248;28;21494;-72
2021/06/26 05:55:56;;;;;;;27.87;20.40;;;16.50;1.00;;;;;;5031884;28;20517;-72
2021/06/26 05:58:33;;;;;;;25.73;20.80;;;16.70;1.00;;;;;;5036447;28;20569;-72
2021/06/26 06:01:00;;;;;;;28.13;20.60;;;16.80;1.00;;;;;;5027205;28;20845;-71
2021/06/26 06:03:26;;;;;;;28.30;22.20;;;16.90;1.00;;;;;;5029046;28;20580;-72
2021/06/26 06:05:52;;;;;;;26.90;21.50;;;16.90;1.00;;;;;;5031447;28;20460;-71
2021/06/26 06:08:19;;;;;;;27.53;23.07;;;17.00;1.00;;;;;;5030444;28;20792;-71
2021/06/26 06:10:44;;;;;;;28.30;22.90;;;17.00;1.00;;;;;;5031229;28;20715;-72
2021/06/26 06:13:14;;;;;;;33.07;24.70;;;17.10;1.00;;;;;;5033766;28;20466;-72
2021/06/26 06:15:45;;;;;;;33.10;23.53;;;17.20;1.00;;;;;;5038366;28;20233;-72
2021/06/26 06:18:11;;;;;;;29.33;23.80;;;17.20;1.00;;;;;;5026947;28;20475;-72
2021/06/26 06:20:37;;;;;;;29.50;22.80;;;17.30;1.00;;;;;;5030329;28;20449;-71
2021/06/26 06:23:03;;;;;;;27.50;23.07;;;17.30;1.00;;;;;;5033996;28;21085;-72
2021/06/26 06:25:29;;;;;;;33.97;22.20;;;17.30;1.00;;;;;;5032465;28;20464;-72
2021/06/26 06:27:55;;;;;;;28.40;22.40;;;17.40;1.00;;;;;;5033250;28;21190;-72
2021/06/26 06:30:21;;;;;;;28.20;23.40;;;17.40;1.00;;;;;;5033513;28;20457;-72
2021/06/26 06:32:47;;;;;;;31.20;22.60;;;17.40;1.00;;;;;;5028089;28;20471;-72
2021/06/26 06:35:12;;;;;;;27.83;22.83;;;17.40;1.00;;;;;;5037720;28;20509;-72
2021/06/26 06:37:38;;;;;;;29.23;23.77;;;17.30;1.00;;;;;;5028039;28;20273;-72
2021/06/26 06:40:08;;;;;;;29.13;22.30;;;17.40;1.00;;;;;;5037694;28;20187;-72
2021/06/26 06:42:35;;;;;;;28.97;23.13;;;17.60;1.00;;;;;;5035888;28;20496;-72
2021/06/26 06:45:01;;;;;;;27.13;23.70;;;17.60;1.00;;;;;;5040150;28;20916;-72
2021/06/26 06:47:27;;;;;;;28.20;23.07;;;17.70;1.00;;;;;;5034864;28;20452;-72
2021/06/26 06:49:53;;;;;;;30.50;23.53;;;17.90;1.00;;;;;;5040533;28;20919;-72
2021/06/26 06:52:18;;;;;;;24.50;21.20;;;18.10;1.00;;;;;;5035492;28;20253;-72
2021/06/26 06:54:44;;;;;;;27.93;23.93;;;18.20;1.00;;;;;;5038764;28;20195;-71
2021/06/26 06:57:10;;;;;;;25.47;22.77;;;18.40;1.00;;;;;;5040192;28;20481;-71
2021/06/26 06:59:35;;;;;;;28.77;22.03;;;18.60;1.00;;;;;;5037725;28;20263;-72
2021/06/26 07:02:01;;;;;;;30.70;20.27;;;18.80;1.00;;;;;;5039032;28;20191;-72
2021/06/26 07:04:27;;;;;;;25.17;20.50;;;19.00;1.00;;;;;;5037233;28;20286;-72
2021/06/26 07:06:53;;;;;;;22.57;20.20;;;19.10;1.00;;;;;;5040315;28;20825;-72
2021/06/26 07:09:19;;;;;;;27.03;21.40;;;19.30;1.00;;;;;;5036989;28;20245;-72
2021/06/26 07:11:45;;;;;;;25.23;21.27;;;19.30;1.00;;;;;;5041587;28;21130;-72
2021/06/26 07:14:11;;;;;;;24.97;20.60;;;19.40;1.00;;;;;;5025753;28;20207;-72
2021/06/26 07:16:37;;;;;;;24.30;20.90;;;19.40;1.00;;;;;;5047503;28;20287;-72
2021/06/26 07:19:03;;;;;;;23.70;19.03;;;19.40;1.00;;;;;;5049586;28;20266;-72
2021/06/26 07:21:30;;;;;;;20.83;17.57;;;19.60;1.00;;;;;;5051347;28;20194;-72
2021/06/26 07:23:56;;;;;;;19.77;16.57;;;19.60;1.00;;;;;;5042440;28;20457;-72
2021/06/26 07:26:22;;;;;;;20.07;17.30;;;19.70;1.00;;;;;;5049165;28;20507;-72
2021/06/26 07:28:48;;;;;;;19.53;16.30;;;19.80;1.00;;;;;;5045809;28;20312;-72
2021/06/26 07:31:13;;;;;;;23.30;17.60;;;20.00;1.00;;;;;;5048373;28;20204;-72
2021/06/26 07:33:39;;;;;;;19.80;16.67;;;20.10;1.00;;;;;;5040576;28;21080;-72
2021/06/26 07:36:05;;;;;;;17.97;16.17;;;20.20;1.00;;;;;;5047042;28;20183;-73
2021/06/26 07:38:31;;;;;;;19.60;16.97;;;20.30;1.00;;;;;;5053672;28;20683;-72
2021/06/26 07:40:57;;;;;;;18.77;15.30;;;20.40;1.00;;;;;;5042952;28;20449;-72
2021/06/26 07:43:22;;;;;;;20.00;15.33;;;20.50;1.00;;;;;;5035441;28;20202;-72
2021/06/26 07:45:48;;;;;;;20.73;15.93;;;20.50;1.00;;;;;;5041781;28;20192;-72
2021/06/26 07:48:14;;;;;;;16.60;14.80;;;20.60;1.00;;;;;;5036824;28;21038;-72
2021/06/26 07:50:39;;;;;;;16.70;14.40;;;20.70;1.00;;;;;;5037361;28;20193;-72
2021/06/26 07:53:05;;;;;;;18.83;14.93;;;20.70;1.00;;;;;;5041546;28;20196;-72
2021/06/26 07:55:31;;;;;;;17.53;15.20;;;20.80;1.00;;;;;;5042761;28;20272;-72
2021/06/26 07:57:57;;;;;;;16.60;13.20;;;20.70;1.00;;;;;;5044968;28;20660;-72
2021/06/26 08:00:23;;;;;;;16.20;14.40;;;20.90;1.00;;;;;;5046154;28;20446;-72
2021/06/26 08:02:48;;;;;;;14.43;12.90;;;20.90;1.00;;;;;;5044517;28;20725;-72
2021/06/26 08:05:14;;;;;;;14.80;13.33;;;21.00;1.00;;;;;;5043932;28;20476;-72
2021/06/26 08:07:40;;;;;;;15.50;13.73;;;21.10;1.00;;;;;;5037074;28;20691;-72
2021/06/26 08:10:06;;;;;;;15.43;12.40;;;21.20;1.00;;;;;;5031954;28;20214;-72
2021/06/26 08:12:34;;;;;;;13.53;12.13;;;21.40;1.00;;;;;;5039955;28;20584;-72
2021/06/26 08:15:01;;;;;;;15.00;12.63;;;21.40;1.00;;;;;;5040971;28;20444;-72
2021/06/26 08:17:27;;;;;;;12.80;11.50;;;21.50;1.00;;;;;;5041137;28;20479;-72
2021/06/26 08:19:53;;;;;;;13.20;11.50;;;21.50;1.00;;;;;;5045275;28;20440;-72
2021/06/26 08:22:18;;;;;;;15.83;11.17;;;21.60;1.00;;;;;;5041952;28;20899;-72
2021/06/26 08:24:44;;;;;;;10.17;9.17;;;21.70;1.00;;;;;;5035360;28;20195;-72
2021/06/26 08:27:10;;;;;;;9.73;8.73;;;21.80;1.00;;;;;;5043067;28;20199;-72
2021/06/26 08:29:35;;;;;;;16.50;10.53;;;21.90;1.00;;;;;;5040056;28;20187;-72
2021/06/26 08:32:02;;;;;;;12.47;10.67;;;22.00;1.00;;;;;;5048009;28;20308;-72
2021/06/26 08:34:27;;;;;;;10.27;9.10;;;22.10;1.00;;;;;;5043982;28;20292;-72
2021/06/26 08:36:53;;;;;;;13.33;10.90;;;22.20;1.00;;;;;;5038893;28;23878;-72
2021/06/26 08:39:20;;;;;;;9.63;8.70;;;22.40;1.00;;;;;;5034856;28;20562;-72
2021/06/26 08:41:47;;;;;;;11.13;10.00;;;22.40;1.00;;;;;;5045098;28;20693;-73
2021/06/26 08:44:13;;;;;;;12.93;9.90;;;22.40;1.00;;;;;;5038858;28;20432;-72
2021/06/26 08:46:45;;;;;;;11.83;10.03;;;22.50;1.00;;;;;;5053705;28;20456;-73
2021/06/26 08:49:11;;;;;;;10.40;9.30;;;22.50;1.00;;;;;;5054811;28;20177;-72
2021/06/26 08:51:38;;;;;;;14.10;10.53;;;22.60;1.00;;;;;;5051729;28;20972;-72
2021/06/26 08:54:09;;;;;;;10.73;9.30;;;22.70;1.00;;;;;;5051592;28;20441;-72
2021/06/26 08:56:34;;;;;;;11.47;10.37;;;22.70;1.00;;;;;;5054785;28;20465;-72
2021/06/26 08:59:00;;;;;;;9.30;8.30;;;22.80;1.00;;;;;;5055998;28;20460;-72
2021/06/26 09:01:26;;;;;;;9.67;8.73;;;22.80;1.00;;;;;;5043645;28;20186;-72
2021/06/26 09:04:04;;;;;;;9.30;8.40;;;22.90;1.00;;;;;;5032865;28;20191;-73
2021/06/26 09:06:33;;;;;;;8.90;8.00;;;23.00;1.00;;;;;;5041895;28;20204;-72
2021/06/26 09:08:59;;;;;;;10.70;7.90;;;22.90;1.00;;;;;;5052924;28;21317;-72
2021/06/26 09:11:25;;;;;;;10.97;8.30;;;22.70;1.00;;;;;;5027486;28;20673;-72
2021/06/26 09:13:51;;;;;;;8.47;7.60;;;22.70;1.00;;;;;;5042486;28;20237;-72
2021/06/26 09:16:17;;;;;;;9.83;7.47;;;22.80;1.00;;;;;;5045402;28;20551;-72
2021/06/26 09:18:44;;;;;;;12.50;7.70;;;22.90;1.00;;;;;;5027772;28;20718;-72
2021/06/26 09:21:31;;;;;;;9.47;8.40;;;22.80;1.00;;;;;;5048827;28;20186;-72
2021/06/26 09:24:00;;;;;;;8.40;7.60;;;22.70;1.00;;;;;;5030939;28;21091;-72
2021/06/26 09:26:27;;;;;;;9.17;8.07;;;22.40;1.00;;;;;;5022776;28;20516;-72
2021/06/26 09:28:52;;;;;;;9.57;8.60;;;22.40;1.00;;;;;;5030681;28;20471;-72
2021/06/26 09:31:21;;;;;;;8.73;8.00;;;22.40;1.00;;;;;;5023353;28;20471;-72
2021/06/26 09:34:00;;;;;;;13.03;7.33;;;22.60;1.00;;;;;;5033416;28;20234;-73
2021/06/26 09:36:31;;;;;;;10.97;8.20;;;22.70;1.00;;;;;;5038766;28;20816;-72
2021/06/26 09:39:05;;;;;;;8.60;7.80;;;22.60;1.00;;;;;;5028068;28;20477;-72
2021/06/26 09:41:31;;;;;;;8.43;7.50;;;22.90;1.00;;;;;;5031757;28;20463;-72
2021/06/26 09:44:07;;;;;;;9.07;7.40;;;23.20;1.00;;;;;;5033203;28;20457;-72
2021/06/26 09:46:46;;;;;;;9.53;7.50;;;23.30;1.00;;;;;;5028470;28;20251;-72
2021/06/26 09:49:12;;;;;;;8.70;7.40;;;23.20;1.00;;;;;;5037786;28;20523;-72
2021/06/26 09:51:38;;;;;;;9.20;8.27;;;23.00;1.00;;;;;;5020550;28;20529;-73
2021/06/26 09:54:06;;;;;;;8.43;7.43;;;22.90;1.00;;;;;;5030904;28;20456;-73
2021/06/26 09:56:43;;;;;;;9.53;6.57;;;22.70;1.00;;;;;;5027507;28;20348;-72
2021/06/26 09:59:09;;;;;;;12.70;6.67;;;22.50;1.00;;;;;;5030756;28;20809;-73
2021/06/26 10:01:38;;;;;;;8.73;7.83;;;22.50;1.00;;;;;;5020152;28;20450;-72
2021/06/26 10:04:05;;;;;;;8.00;7.30;;;22.50;1.00;;;;;;5029975;28;20462;-72
2021/06/26 10:06:34;;;;;;;8.10;7.30;;;22.60;1.00;;;;;;5031069;28;20446;-73
2021/06/26 10:09:02;;;;;;;8.33;7.53;;;22.60;1.00;;;;;;5027391;28;20456;-72
2021/06/26 10:11:30;;;;;;;8.07;7.37;;;22.50;1.00;;;;;;5028053;28;20858;-73
2021/06/26 10:13:57;;;;;;;7.30;6.60;;;22.60;1.00;;;;;;5042173;28;20920;-73
2021/06/26 10:16:23;;;;;;;8.60;7.67;;;22.60;1.00;;;;;;5020680;28;20466;-73
2021/06/26 10:18:50;;;;;;;7.70;7.00;;;22.60;1.00;;;;;;5026559;28;20524;-72
2021/06/26 10:21:16;;;;;;;8.90;7.87;;;22.40;1.00;;;;;;5020378;28;20625;-72
2021/06/26 10:23:42;;;;;;;7.73;7.03;;;22.40;1.00;;;;;;5023931;28;21222;-72
2021/06/26 10:26:08;;;;;;;8.33;7.53;;;22.40;1.00;;;;;;5025574;28;20743;-72
2021/06/26 10:28:33;;;;;;;7.73;6.93;;;22.40;1.00;;;;;;5018915;28;20461;-72
2021/06/26 10:31:11;;;;;;;10.50;8.50;;;22.40;1.00;;;;;;5038907;28;20495;-72
2021/06/26 10:33:37;;;;;;;9.77;6.63;;;22.50;1.00;;;;;;5028120;28;20187;-73
2021/06/26 10:36:02;;;;;;;9.27;7.00;;;22.50;1.00;;;;;;5018041;28;20467;-73
2021/06/26 10:38:42;;;;;;;8.20;7.00;;;22.60;1.00;;;;;;5023345;28;20755;-72
2021/06/26 10:41:21;;;;;;;7.73;6.57;;;22.70;1.00;;;;;;5036651;28;20873;-72
2021/06/26 10:44:04;;;;;;;8.33;7.30;;;22.70;1.00;;;;;;5031067;28;20471;-73
2021/06/26 10:46:30;;;;;;;10.30;7.83;;;23.00;1.00;;;;;;5033914;28;20472;-72
2021/06/26 10:49:06;;;;;;;7.20;6.60;;;23.40;1.00;;;;;;5032479;28;20542;-72
2021/06/26 10:51:33;;;;;;;7.83;7.10;;;23.80;1.00;;;;;;5028711;28;20197;-72
2021/06/26 10:54:15;;;;;;;9.93;7.90;;;23.70;1.00;;;;;;5023951;28;20816;-73
2021/06/26 10:56:43;;;;;;;7.40;6.70;;;23.60;1.00;;;;;;5033598;28;20572;-73
2021/06/26 10:59:14;;;;;;;8.90;7.27;;;23.50;1.00;;;;;;5031025;28;20815;-73
2021/06/26 11:01:55;;;;;;;7.77;6.97;;;23.30;1.00;;;;;;5031274;28;21059;-72
2021/06/26 11:04:21;;;;;;;7.33;6.50;;;23.20;1.00;;;;;;5015783;28;20841;-72
2021/06/26 11:06:50;;;;;;;14.87;7.70;;;23.00;1.00;;;;;;5026746;28;20463;-72
2021/06/26 11:09:16;;;;;;;8.37;7.20;;;22.80;1.00;;;;;;5033173;28;20448;-72
2021/06/26 11:11:44;;;;;;;8.27;7.23;;;22.80;1.00;;;;;;5028145;28;20453;-72
2021/06/26 11:14:19;;;;;;;9.30;8.10;;;22.70;1.00;;;;;;5033855;28;20563;-72
2021/06/26 11:16:57;;;;;;;7.20;6.47;;;22.70;1.00;;;;;;5039573;28;20996;-72
2021/06/26 11:19:33;;;;;;;8.20;7.40;;;22.60;1.00;;;;;;5037861;28;20540;-73
2021/06/26 11:22:01;;;;;;;7.80;7.10;;;22.70;1.00;;;;;;5033618;28;20449;-73
2021/06/26 11:24:38;;;;;;;8.20;7.23;;;22.80;1.00;;;;;;5040534;28;20452;-73
2021/06/26 11:27:06;;;;;;;7.80;6.83;;;22.80;1.00;;;;;;5035778;28;20467;-72
2021/06/26 11:29:37;;;;;;;10.13;6.10;;;22.80;1.00;;;;;;5030437;28;21042;-73
2021/06/26 11:32:25;;;;;;;7.90;7.20;;;22.80;1.00;;;;;;5034630;28;21507;-72
2021/06/26 11:34:54;;;;;;;6.73;6.13;;;22.80;1.00;;;;;;5028107;28;20671;-72
2021/06/26 11:37:20;;;;;;;13.43;7.67;;;22.80;1.00;;;;;;5014186;28;20474;-72
2021/06/26 11:39:45;;;;;;;8.80;7.90;;;22.80;1.00;;;;;;5028373;28;21329;-73
2021/06/26 11:42:19;;;;;;;8.60;7.80;;;22.80;1.00;;;;;;5032264;28;20210;-72
2021/06/26 11:44:46;;;;;;;10.13;7.50;;;22.90;1.00;;;;;;5032144;28;20252;-72
2021/06/26 11:47:12;;;;;;;8.97;8.17;;;22.90;1.00;;;;;;5031545;28;20492;-72
2021/06/26 11:49:43;;;;;;;8.57;7.63;;;22.90;1.00;;;;;;5024394;28;20843;-72
2021/06/26 11:52:11;;;;;;;15.70;7.93;;;23.00;1.00;;;;;;5016014;28;20457;-73
2021/06/26 11:54:38;;;;;;;8.50;7.70;;;23.00;1.00;;;;;;5025715;28;22930;-73
2021/06/26 11:57:06;;;;;;;8.70;7.63;;;23.00;1.00;;;;;;5028035;28;20577;-73
2021/06/26 11:59:40;;;;;;;8.07;7.30;;;23.00;1.00;;;;;;5011313;28;20882;-72
2021/06/26 12:02:06;;;;;;;8.70;7.77;;;23.00;1.00;;;;;;5030006;28;20446;-74
2021/06/26 12:04:31;;;;;;;8.10;7.33;;;23.00;1.00;;;;;;5018796;28;20691;-73
2021/06/26 12:06:58;;;;;;;7.30;6.60;;;23.10;1.00;;;;;;5016978;28;20211;-72
2021/06/26 12:09:24;;;;;;;8.83;7.87;;;23.20;1.00;;;;;;5022963;28;20188;-72
2021/06/26 12:11:53;;;;;;;18.30;8.03;;;23.30;1.00;;;;;;5037711;28;20880;-73
2021/06/26 12:14:33;;;;;;;9.97;7.30;;;23.70;1.00;;;;;;5023087;28;20553;-72
2021/06/26 12:17:05;;;;;;;6.60;6.00;;;24.10;1.00;;;;;;5031063;28;21342;-73
2021/06/26 12:19:32;;;;;;;8.00;7.30;;;24.30;1.00;;;;;;5027339;28;20445;-73
2021/06/26 12:21:59;;;;;;;7.03;6.43;;;24.30;1.00;;;;;;5011967;28;20448;-72
2021/06/26 12:24:32;;;;;;;11.40;8.57;;;24.30;1.00;;;;;;5029448;28;20445;-72
2021/06/26 12:27:11;;;;;;;8.93;7.13;;;24.10;1.00;;;;;;5021029;28;20825;-73
2021/06/26 12:29:38;;;;;;;7.90;7.10;;;23.90;1.00;;;;;;5021478;28;21223;-73
2021/06/26 12:32:05;;;;;;;8.13;7.33;;;23.80;1.00;;;;;;5029202;28;20454;-73
2021/06/26 12:34:31;;;;;;;7.40;6.50;;;23.60;1.00;;;;;;5023124;28;20453;-73
2021/06/26 12:36:58;;;;;;;7.90;6.77;;;23.50;1.00;;;;;;5028429;28;23275;-72
2021/06/26 12:39:36;;;;;;;7.93;7.13;;;23.40;1.00;;;;;;5035032;28;20445;-72
2021/06/26 12:42:05;;;;;;;9.00;7.50;;;23.30;1.00;;;;;;5028814;28;20437;-72